Time;durP1;ratioP1;P1;durP2;ratioP2;P2;SDS_P1;SDS_P2;PMS_P1;PMS_P2;Temp;Humidity;BMP_temperature;BMP_pressure;BME280_temperature;BME280_humidity;BME280_pressure;Samples;Min_cycle;Max_cycle;Signal;HPM_P1;HPM_P2
2023/05/10 00:00:39;;;;;;;2.80;2.53;;;;;;;13.63;100.00;99609.81;5074889;28;20045;-91
2023/05/10 00:03:10;;;;;;;3.40;2.25;;;;;;;13.53;100.00;99614.09;5061396;28;20051;-90
2023/05/10 00:05:37;;;;;;;2.80;2.40;;;;;;;13.38;100.00;99608.03;5057997;28;20051;-91
2023/05/10 00:08:03;;;;;;;2.92;2.60;;;;;;;13.39;100.00;99619.50;5058128;28;20449;-91
2023/05/10 00:10:31;;;;;;;3.72;3.30;;;;;;;13.33;100.00;99608.38;5060061;28;20104;-90
2023/05/10 00:12:58;;;;;;;4.90;3.47;;;;;;;13.30;100.00;99611.25;5062661;28;20037;-91
2023/05/10 00:15:25;;;;;;;4.72;3.58;;;;;;;13.33;100.00;99616.34;5058105;28;20085;-91
2023/05/10 00:17:51;;;;;;;9.13;4.22;;;;;;;13.41;100.00;99610.47;5057066;28;20071;-91
2023/05/10 00:20:18;;;;;;;6.20;4.53;;;;;;;13.44;100.00;99620.06;5057942;28;20475;-91
2023/05/10 00:22:47;;;;;;;8.10;4.38;;;;;;;13.36;100.00;99620.59;5057593;28;20044;-91
2023/05/10 00:25:14;;;;;;;7.22;4.70;;;;;;;13.28;100.00;99623.78;5058170;28;20044;-91
2023/05/10 00:27:41;;;;;;;4.90;4.15;;;;;;;13.34;100.00;99627.84;5062899;28;20058;-90
2023/05/10 00:30:08;;;;;;;6.57;4.28;;;;;;;13.24;100.00;99605.50;5064630;28;20478;-90
2023/05/10 00:32:36;;;;;;;4.97;3.38;;;;;;;13.36;100.00;99612.63;5058650;28;20110;-90
2023/05/10 00:35:08;;;;;;;6.00;2.90;;;;;;;13.40;100.00;99630.03;5066849;28;20051;-92
2023/05/10 00:37:36;;;;;;;4.95;2.95;;;;;;;13.31;100.00;99617.41;5064594;28;20040;-89
2023/05/10 00:40:08;;;;;;;4.55;2.75;;;;;;;13.27;100.00;99607.94;5062746;28;20056;-91
2023/05/10 00:42:35;;;;;;;3.08;2.20;;;;;;;13.24;100.00;99608.16;5061446;28;20052;-90
2023/05/10 00:45:05;;;;;;;2.38;2.10;;;;;;;13.38;100.00;99626.63;5060576;28;20067;-91
2023/05/10 00:47:40;;;;;;;2.40;1.60;;;;;;;13.26;100.00;99615.06;5042142;28;20099;-91
2023/05/10 00:50:15;;;;;;;3.38;1.88;;;;;;;13.37;100.00;99642.72;5041909;28;20465;-91
2023/05/10 00:52:42;;;;;;;2.88;1.60;;;;;;;13.29;100.00;99636.13;5059239;28;20151;-90
2023/05/10 00:55:11;;;;;;;3.13;1.70;;;;;;;13.32;100.00;99641.25;5063043;28;20186;-90
2023/05/10 00:57:40;;;;;;;3.45;1.73;;;;;;;13.29;100.00;99641.44;5056465;28;20064;-90
2023/05/10 01:00:07;;;;;;;4.60;1.60;;;;;;;13.26;100.00;99644.31;5057394;28;20108;-90
2023/05/10 01:02:37;;;;;;;1.90;1.48;;;;;;;13.12;100.00;99644.41;5058385;28;20048;-92
2023/05/10 01:05:16;;;;;;;3.60;1.50;;;;;;;12.94;100.00;99629.72;5058673;28;20049;-91
2023/05/10 01:07:44;;;;;;;2.35;1.50;;;;;;;12.94;100.00;99646.50;5060594;28;20041;-92
2023/05/10 01:10:14;;;;;;;5.03;1.55;;;;;;;12.69;100.00;99606.63;5062993;28;20041;-91
2023/05/10 01:12:47;;;;;;;4.18;1.10;;;;;;;12.96;100.00;99649.91;5043529;28;20097;-91
2023/05/10 01:15:25;;;;;;;2.55;0.90;;;;;;;12.88;100.00;99641.63;5045004;28;20041;-92
2023/05/10 01:17:53;;;;;;;1.63;0.88;;;;;;;12.60;100.00;99616.06;5044313;28;20497;-91
2023/05/10 01:20:39;;;;;;;1.23;0.90;;;;;;;12.70;100.00;99645.53;5065241;28;20067;-91
2023/05/10 01:23:41;;;;;;;0.90;0.90;;;;;;;12.61;100.00;99635.50;5076867;28;20047;-91
2023/05/10 01:26:40;;;;;;;3.20;1.10;;;;;;;12.64;100.00;99644.13;5076825;28;20099;-93
2023/05/10 01:29:57;;;;;;;1.85;1.00;;;;;;;12.71;100.00;99646.38;5069364;28;20458;-90
2023/05/10 01:33:02;;;;;;;1.30;0.80;;;;;;;12.62;100.00;99623.94;5029641;28;20148;-90
2023/05/10 01:35:43;;;;;;;2.80;0.98;;;;;;;12.75;100.00;99659.34;5061348;28;20068;-91
2023/05/10 01:38:38;;;;;;;5.60;1.08;;;;;;;12.69;100.00;99646.50;5063194;28;20103;-91
2023/05/10 01:42:02;;;;;;;0.75;0.75;;;;;;;12.81;100.00;99664.25;5049894;28;20104;-89
2023/05/10 01:45:13;;;;;;;2.08;0.70;;;;;;;12.71;100.00;99665.84;5064513;28;20045;-89
2023/05/10 01:47:58;;;;;;;0.93;0.80;;;;;;;12.71;100.00;99673.81;4976456;28;20074;-91
2023/05/10 01:50:29;;;;;;;3.60;1.00;;;;;;;12.54;100.00;99653.69;5079003;28;20067;-90
2023/05/10 01:52:59;;;;;;;1.65;1.15;;;;;;;12.69;100.00;99669.53;5080534;28;20075;-90
2023/05/10 01:55:32;;;;;;;1.75;1.10;;;;;;;12.70;100.00;99680.06;5080248;28;20040;-92
2023/05/10 01:58:09;;;;;;;2.40;1.02;;;;;;;12.66;100.00;99675.91;5051159;28;20044;-91
2023/05/10 02:00:48;;;;;;;1.38;0.98;;;;;;;12.32;100.00;99626.84;5066903;28;20052;-91
2023/05/10 02:03:23;;;;;;;3.75;0.90;;;;;;;12.41;100.00;99654.59;5075135;28;20064;-91
2023/05/10 02:05:54;;;;;;;2.45;0.88;;;;;;;12.58;100.00;99672.94;5063460;28;20048;-92
2023/05/10 02:08:24;;;;;;;1.73;0.95;;;;;;;12.53;100.00;99669.72;5074209;28;20045;-92
2023/05/10 02:10:54;;;;;;;0.80;0.80;;;;;;;12.54;100.00;99682.91;5062367;28;20037;-92
2023/05/10 02:13:25;;;;;;;1.58;0.88;;;;;;;12.57;100.00;99684.50;5063704;28;20055;-92
2023/05/10 02:15:56;;;;;;;2.92;1.48;;;;;;;12.53;100.00;99677.69;5071276;28;20124;-90
2023/05/10 02:18:26;;;;;;;4.80;1.00;;;;;;;12.38;100.00;99660.97;5060700;28;20044;-90
2023/05/10 02:21:00;;;;;;;0.80;0.80;;;;;;;12.56;100.00;99686.31;5076132;28;20040;-92
2023/05/10 02:23:49;;;;;;;1.40;1.00;;;;;;;12.53;100.00;99678.53;5058105;28;20123;-90
2023/05/10 02:26:32;;;;;;;0.90;0.85;;;;;;;12.58;100.00;99692.38;5069049;28;20135;-91
2023/05/10 02:29:09;;;;;;;2.80;0.85;;;;;;;12.68;100.00;99697.91;5065153;28;20108;-91
2023/05/10 02:31:43;;;;;;;2.40;0.80;;;;;;;12.58;100.00;99665.81;5068106;28;20459;-90
2023/05/10 02:34:25;;;;;;;0.80;0.80;;;;;;;12.76;100.00;99700.03;5082862;28;20045;-90
2023/05/10 02:36:56;;;;;;;0.95;0.60;;;;;;;12.49;100.00;99661.09;5064864;28;20068;-91
2023/05/10 02:39:34;;;;;;;3.42;0.82;;;;;;;12.74;100.00;99708.13;5033789;28;20484;-91
2023/05/10 02:42:02;;;;;;;3.00;0.90;;;;;;;12.60;100.00;99686.94;5063492;28;20052;-90
2023/05/10 02:44:31;;;;;;;1.33;0.80;;;;;;;12.76;100.00;99713.31;5064121;28;20457;-91
2023/05/10 02:46:58;;;;;;;0.93;0.80;;;;;;;12.61;100.00;99680.66;5063267;28;20053;-91
2023/05/10 02:49:25;;;;;;;0.65;0.65;;;;;;;12.67;100.00;99687.38;5064095;28;20064;-91
2023/05/10 02:51:59;;;;;;;2.25;0.90;;;;;;;12.73;100.00;99710.91;5083790;28;20052;-91
2023/05/10 02:54:42;;;;;;;2.45;0.90;;;;;;;12.62;100.00;99719.56;5068403;28;20536;-91
2023/05/10 02:57:14;;;;;;;2.80;0.90;;;;;;;12.49;100.00;99702.72;5075914;28;20052;-91
2023/05/10 02:59:45;;;;;;;3.00;1.00;;;;;;;12.47;100.00;99704.63;5075542;28;20044;-90
2023/05/10 03:02:16;;;;;;;2.28;0.90;;;;;;;12.43;100.00;99708.47;5099261;28;20044;-90
2023/05/10 03:04:44;;;;;;;1.38;1.02;;;;;;;12.41;100.00;99699.75;5082207;28;20033;-91
2023/05/10 03:07:21;;;;;;;0.80;0.80;;;;;;;12.44;100.00;99704.81;5099469;28;20095;-90
2023/05/10 03:09:55;;;;;;;3.13;0.70;;;;;;;12.37;100.00;99696.44;5088786;28;20052;-91
2023/05/10 03:12:46;;;;;;;2.15;0.98;;;;;;;12.47;100.00;99710.78;5064175;28;20543;-91
2023/05/10 03:15:42;;;;;;;1.63;1.02;;;;;;;12.45;100.00;99709.19;5063862;28;20573;-90
2023/05/10 03:18:15;;;;;;;1.33;1.02;;;;;;;12.42;100.00;99712.91;5061256;28;20064;-90
2023/05/10 03:20:48;;;;;;;3.38;0.90;;;;;;;12.37;100.00;99708.84;5060196;28;20048;-90
2023/05/10 03:23:17;;;;;;;1.80;0.88;;;;;;;12.38;100.00;99722.03;5059873;28;20109;-90
2023/05/10 03:25:47;;;;;;;2.43;1.10;;;;;;;12.31;100.00;99720.72;5058205;28;20052;-91
2023/05/10 03:28:15;;;;;;;1.50;1.27;;;;;;;12.07;100.00;99687.78;5058918;28;20496;-90
2023/05/10 03:30:45;;;;;;;1.75;1.02;;;;;;;12.25;100.00;99715.81;5059126;28;20494;-90
2023/05/10 03:33:14;;;;;;;2.15;1.20;;;;;;;12.17;100.00;99710.97;5058416;28;20049;-90
2023/05/10 03:35:40;;;;;;;1.55;1.25;;;;;;;12.25;100.00;99723.78;5058796;28;20041;-89
2023/05/10 03:38:10;;;;;;;1.40;1.30;;;;;;;12.30;100.00;99733.13;5066418;28;20151;-90
2023/05/10 03:40:37;;;;;;;1.63;1.08;;;;;;;12.18;100.00;99710.03;5063806;28;20052;-89
2023/05/10 03:43:06;;;;;;;2.67;1.20;;;;;;;12.31;100.00;99736.63;5061996;28;20131;-88
2023/05/10 03:45:33;;;;;;;1.50;1.40;;;;;;;12.20;100.00;99724.06;5065409;28;20041;-89
2023/05/10 03:48:04;;;;;;;1.50;1.40;;;;;;;12.31;100.00;99741.94;5067958;28;20266;-90
2023/05/10 03:50:33;;;;;;;5.32;2.45;;;;;;;12.32;100.00;99745.44;5061782;28;20044;-89
2023/05/10 03:53:03;;;;;;;2.65;1.35;;;;;;;12.34;100.00;99740.91;5063454;28;20393;-90
2023/05/10 03:55:29;;;;;;;1.30;1.20;;;;;;;12.30;100.00;99749.06;5065618;28;20045;-92
2023/05/10 03:57:58;;;;;;;4.57;1.50;;;;;;;12.36;100.00;99749.63;5061659;28;20045;-91
2023/05/10 04:00:27;;;;;;;1.33;1.10;;;;;;;12.39;100.00;99750.28;5061205;28;20544;-90
2023/05/10 04:02:54;;;;;;;1.40;1.30;;;;;;;12.45;100.00;99741.03;5064729;28;20051;-89
2023/05/10 04:05:21;;;;;;;1.25;1.15;;;;;;;12.48;100.00;99747.03;5062086;28;20047;-89
2023/05/10 04:07:49;;;;;;;1.90;1.30;;;;;;;12.48;100.00;99748.81;5066164;28;20056;-90
2023/05/10 04:10:16;;;;;;;1.60;1.50;;;;;;;12.07;100.00;99686.00;5065312;28;20041;-91
2023/05/10 04:12:43;;;;;;;2.70;1.48;;;;;;;12.36;100.00;99723.94;5067427;28;20037;-90
2023/05/10 04:15:12;;;;;;;3.00;1.73;;;;;;;12.49;100.00;99738.09;5064900;28;20220;-92
2023/05/10 04:17:39;;;;;;;1.45;1.30;;;;;;;12.48;100.00;99716.97;5057732;28;20068;-90
2023/05/10 04:20:07;;;;;;;3.30;1.40;;;;;;;12.65;100.00;99727.31;5075715;28;20036;-89
2023/05/10 04:22:34;;;;;;;1.30;1.20;;;;;;;12.68;100.00;99735.09;5072580;28;20044;-89
2023/05/10 04:25:02;;;;;;;2.50;1.33;;;;;;;12.49;100.00;99722.16;5047066;28;20502;-90
2023/05/10 04:27:28;;;;;;;1.90;1.50;;;;;;;12.48;100.00;99723.13;5058868;28;20051;-90
2023/05/10 04:29:55;;;;;;;2.60;1.48;;;;;;;12.54;100.00;99729.84;5058371;28;20044;-90
2023/05/10 04:32:22;;;;;;;2.00;1.40;;;;;;;12.65;100.00;99751.22;5058200;28;20045;-89
2023/05/10 04:34:51;;;;;;;3.38;1.55;;;;;;;12.70;100.00;99749.13;5071060;28;20033;-90
2023/05/10 04:37:19;;;;;;;2.83;1.92;;;;;;;12.76;100.00;99740.75;5075140;28;20037;-91
2023/05/10 04:39:52;;;;;;;3.42;1.70;;;;;;;12.83;100.00;99751.81;5059368;28;20087;-91
2023/05/10 04:42:22;;;;;;;3.88;1.60;;;;;;;12.88;100.00;99758.56;5058558;28;20136;-92
2023/05/10 04:44:51;;;;;;;2.40;1.92;;;;;;;12.92;100.00;99754.72;5059015;28;20512;-91
2023/05/10 04:47:23;;;;;;;5.22;1.50;;;;;;;12.91;100.00;99757.47;5057560;28;20067;-91
2023/05/10 04:50:09;;;;;;;1.88;1.77;;;;;;;12.86;100.00;99760.44;5058917;28;20048;-90
2023/05/10 04:52:56;;;;;;;2.00;1.80;;;;;;;13.02;100.00;99770.91;5059679;28;20048;-91
2023/05/10 04:55:23;;;;;;;3.03;1.73;;;;;;;12.81;100.00;99725.34;5049380;28;20056;-92
2023/05/10 04:57:55;;;;;;;3.08;1.63;;;;;;;12.96;100.00;99755.38;5064294;28;20091;-92
2023/05/10 05:00:24;;;;;;;3.13;1.80;;;;;;;13.10;100.00;99763.25;5048864;28;20109;-92
2023/05/10 05:03:01;;;;;;;4.88;1.88;;;;;;;13.18;100.00;99755.66;5065633;28;20044;-91
2023/05/10 05:05:30;;;;;;;3.65;1.77;;;;;;;13.24;100.00;99759.69;5060490;28;20057;-92
2023/05/10 05:07:57;;;;;;;3.50;1.95;;;;;;;13.19;100.00;99772.47;5057450;28;20536;-91
2023/05/10 05:10:24;;;;;;;4.20;2.00;;;;;;;13.19;100.00;99770.66;5057654;28;20144;-91
2023/05/10 05:12:54;;;;;;;3.85;2.10;;;;;;;13.18;100.00;99781.41;5058363;28;20045;-92
2023/05/10 05:15:35;;;;;;;4.60;2.22;;;;;;;13.10;100.00;99778.34;5040173;28;20049;-91
2023/05/10 05:18:07;;;;;;;6.10;2.50;;;;;;;12.69;100.00;99720.88;5043777;28;20037;-92
2023/05/10 05:20:41;;;;;;;;;;;;;;;13.02;100.00;99786.88;5038391;28;20052;-91
2023/05/10 05:23:33;;;;;;;2.97;2.58;;;;;;;13.05;100.00;99776.03;5039131;28;19935;-91
2023/05/10 05:26:29;;;;;;;3.15;1.92;;;;;;;13.20;100.00;99795.44;5038554;28;20052;-91
2023/05/10 05:29:04;;;;;;;2.72;2.40;;;;;;;13.03;100.00;99761.13;5024445;28;20069;-91
2023/05/10 05:31:33;;;;;;;3.03;2.25;;;;;;;13.26;100.00;99793.22;5024069;28;20045;-92
2023/05/10 05:34:16;;;;;;;5.55;2.50;;;;;;;13.27;100.00;99786.09;5041502;28;20084;-92
2023/05/10 05:36:44;;;;;;;3.17;2.88;;;;;;;13.31;100.00;99795.56;5038214;28;20048;-91
2023/05/10 05:39:19;;;;;;;3.15;2.45;;;;;;;13.08;100.00;99769.63;5040469;28;20053;-93
2023/05/10 05:41:52;;;;;;;5.88;2.60;;;;;;;13.21;100.00;99787.38;5043210;28;20049;-92
2023/05/10 05:44:43;;;;;;;3.15;2.38;;;;;;;13.26;100.00;99789.69;5043101;28;20085;-94
2023/05/10 05:47:25;;;;;;;2.75;2.53;;;;;;;13.04;100.00;99744.25;5051160;28;20055;-92
2023/05/10 05:50:12;;;;;;;5.53;2.90;;;;;;;13.27;100.00;99792.25;5055900;28;20076;-92
2023/05/10 05:56:24;;;;;;;3.70;2.72;;;;;;;12.93;100.00;99785.66;5042430;28;20141;-92
2023/05/10 05:59:01;;;;;;;5.03;3.08;;;;;;;12.86;100.00;99772.88;5045773;28;20053;-93
2023/05/10 06:01:31;;;;;;;5.95;3.17;;;;;;;13.11;100.00;99817.28;5047635;28;20056;-93
2023/05/10 06:04:02;;;;;;;6.20;3.17;;;;;;;12.92;100.00;99780.44;5027398;28;20049;-93
2023/05/10 06:06:32;;;;;;;4.43;3.10;;;;;;;13.02;100.00;99800.16;5043195;28;20049;-91
2023/05/10 06:09:07;;;;;;;5.97;3.38;;;;;;;12.84;100.00;99759.69;5053346;28;20042;-92
2023/05/10 06:11:40;;;;;;;7.47;3.90;;;;;;;13.24;100.00;99818.19;5037762;28;20053;-92
2023/05/10 06:14:07;;;;;;;6.30;3.63;;;;;;;13.20;100.00;99806.09;5062232;28;20045;-92
2023/05/10 06:16:40;;;;;;;3.55;3.22;;;;;;;13.36;100.00;99814.72;5075240;28;20043;-92
2023/05/10 06:19:16;;;;;;;4.22;3.10;;;;;;;13.58;100.00;99824.75;5055310;28;20108;-92
2023/05/10 06:21:44;;;;;;;4.28;3.10;;;;;;;13.59;100.00;99824.66;5071906;28;20053;-92
2023/05/10 06:24:14;;;;;;;3.50;3.10;;;;;;;13.56;100.00;99822.19;5075532;28;20084;-91
2023/05/10 06:26:41;;;;;;;8.55;3.15;;;;;;;13.67;100.00;99840.94;5053991;28;20045;-93
2023/05/10 06:29:08;;;;;;;4.47;3.15;;;;;;;13.66;100.00;99825.94;5074867;28;20060;-93
2023/05/10 06:31:49;;;;;;;4.30;3.38;;;;;;;13.75;100.00;99839.56;5079069;28;20053;-92
2023/05/10 06:34:18;;;;;;;6.05;3.42;;;;;;;13.77;100.00;99832.31;5074036;28;20060;-92
2023/05/10 06:36:58;;;;;;;5.53;3.08;;;;;;;13.81;100.00;99837.34;5048001;28;20040;-91
2023/05/10 06:39:39;;;;;;;6.05;3.28;;;;;;;13.64;100.00;99824.34;5063855;28;20401;-94
2023/05/10 06:45:11;;;;;;;7.82;3.50;;;;;;;13.71;100.00;99846.88;5247420;22;20053;-92
2023/05/10 06:47:46;;;;;;;7.53;3.50;;;;;;;13.69;100.00;99825.72;5076161;28;20024;-95
2023/05/10 06:50:15;;;;;;;5.97;4.10;;;;;;;13.81;100.00;99831.16;5064961;28;20078;-93
2023/05/10 06:52:58;;;;;;;7.63;3.58;;;;;;;14.03;100.00;99850.84;5054064;28;20036;-92
2023/05/10 06:55:31;;;;;;;5.00;3.45;;;;;;;14.15;100.00;99848.31;5082844;28;20064;-92
2023/05/10 06:58:03;;;;;;;6.68;3.40;;;;;;;14.26;100.00;99848.38;5080350;28;20047;-90
2023/05/10 07:04:23;;;;;;;5.07;3.10;;;;;;;14.36;100.00;99860.09;5033646;28;20057;-92
2023/05/10 07:06:54;;;;;;;6.13;3.67;;;;;;;14.39;100.00;99858.06;5019540;28;20038;-92
2023/05/10 07:09:39;;;;;;;6.45;3.67;;;;;;;14.35;100.00;99851.22;5017437;28;20045;-92
2023/05/10 07:12:21;;;;;;;4.22;3.35;;;;;;;14.31;100.00;99855.09;5024655;28;20073;-90
2023/05/10 07:15:07;;;;;;;6.15;3.33;;;;;;;14.42;100.00;99866.81;5006825;28;20041;-91
2023/05/10 07:17:45;;;;;;;4.30;3.25;;;;;;;14.52;100.00;99878.53;5022283;28;20042;-90
2023/05/10 07:23:58;;;;;;;6.00;3.38;;;;;;;14.28;100.00;99881.09;5027401;28;20099;-92
2023/05/10 07:26:48;;;;;;;10.60;4.00;;;;;;;14.16;100.00;99874.81;5008914;28;20045;-92
2023/05/10 07:29:41;;;;;;;5.35;3.30;;;;;;;14.27;100.00;99874.91;5024534;28;20040;-91
2023/05/10 07:32:21;;;;;;;6.18;3.20;;;;;;;14.30;100.00;99885.34;5052211;28;20050;-92
2023/05/10 07:34:53;;;;;;;6.55;3.17;;;;;;;14.30;100.00;99885.34;5067299;28;20055;-91
2023/05/10 07:37:36;;;;;;;5.72;3.55;;;;;;;14.13;100.00;99883.03;5065845;28;20078;-92
2023/05/10 07:40:45;;;;;;;5.50;2.97;;;;;;;14.05;100.00;99885.34;5068126;28;20040;-93
2023/05/10 07:47:42;;;;;;;7.32;3.33;;;;;;;14.31;100.00;99892.38;5090231;28;20075;-92
2023/05/10 07:50:09;;;;;;;5.57;3.35;;;;;;;14.35;100.00;99895.66;5074735;28;20044;-92
2023/05/10 07:52:42;;;;;;;7.68;3.30;;;;;;;14.43;100.00;99887.19;5060792;28;20044;-91
2023/05/10 07:55:24;;;;;;;6.07;3.47;;;;;;;14.30;100.00;99868.53;5070940;28;20068;-91
2023/05/10 07:57:57;;;;;;;7.38;3.70;;;;;;;14.48;100.00;99893.03;5066321;28;20068;-92
2023/05/10 08:00:28;;;;;;;8.63;3.45;;;;;;;14.52;100.00;99892.69;5080017;28;20048;-92
2023/05/10 08:02:57;;;;;;;6.85;3.80;;;;;;;14.66;100.00;99883.72;5067465;28;20040;-91
2023/05/10 08:05:25;;;;;;;5.65;3.20;;;;;;;14.98;100.00;99902.72;5065724;28;20067;-92
2023/05/10 08:07:55;;;;;;;6.95;3.33;;;;;;;15.14;100.00;99894.44;5084631;28;20044;-93
2023/05/10 08:10:30;;;;;;;6.00;3.10;;;;;;;15.13;100.00;99858.91;5066378;28;20148;-92
2023/05/10 08:13:15;;;;;;;4.70;3.45;;;;;;;15.45;100.00;99901.88;4972452;28;20050;-92
2023/05/10 08:16:08;;;;;;;3.90;2.88;;;;;;;15.54;100.00;99911.00;4976303;28;20074;-92
2023/05/10 08:22:24;;;;;;;5.03;2.78;;;;;;;15.54;100.00;99906.53;5008768;28;20058;-92
2023/05/10 08:35:47;;;;;;;5.13;2.58;;;;;;;15.53;100.00;99859.47;6214078;21;1498152;-92
2023/05/10 08:38:25;;;;;;;5.43;3.00;;;;;;;15.63;100.00;99880.97;6244980;23;20056;-92
2023/05/10 08:41:06;;;;;;;4.18;2.72;;;;;;;15.66;100.00;99883.41;6249880;23;20017;-91
2023/05/10 08:43:35;;;;;;;5.03;2.38;;;;;;;15.44;100.00;99895.69;6250031;23;20068;-92
2023/05/10 08:46:06;;;;;;;6.60;2.97;;;;;;;15.08;100.00;99858.41;6241817;23;20070;-93
2023/05/10 08:48:40;;;;;;;4.75;2.45;;;;;;;15.28;100.00;99881.78;6239577;23;20023;-92
2023/05/10 08:51:11;;;;;;;4.80;2.45;;;;;;;15.23;100.00;99872.44;6238736;23;20012;-92
2023/05/10 08:53:46;;;;;;;4.03;2.00;;;;;;;15.70;100.00;99920.44;6191444;23;20027;-92
2023/05/10 08:56:46;;;;;;;6.03;2.05;;;;;;;15.49;100.00;99862.47;6238869;23;20040;-92
2023/05/10 08:59:22;;;;;;;4.75;2.50;;;;;;;15.55;100.00;99891.38;6232918;23;20100;-92
2023/05/10 09:02:00;;;;;;;7.10;2.47;;;;;;;15.24;100.00;99892.81;6229608;23;20017;-93
2023/05/10 09:04:52;;;;;;;3.92;2.25;;;;;;;15.22;100.00;99932.94;6216163;23;20020;-91
2023/05/10 09:07:34;;;;;;;6.03;3.00;;;;;;;14.86;100.00;99911.59;6241023;23;20004;-91
2023/05/10 09:10:05;;;;;;;5.45;2.35;;;;;;;14.98;100.00;99940.88;6236313;23;20017;-91
2023/05/10 09:12:48;;;;;;;5.10;2.38;;;;;;;14.98;100.00;99938.22;6213480;23;20004;-90
2023/05/10 09:15:31;;;;;;;4.70;2.50;;;;;;;15.14;100.00;99940.63;6241712;23;20035;-93
2023/05/10 09:18:13;;;;;;;3.72;2.50;;;;;;;15.39;100.00;99926.34;6233162;23;20016;-90
2023/05/10 09:20:54;;;;;;;3.78;2.55;;;;;;;15.73;100.00;99930.06;6231506;23;20064;-90
2023/05/10 09:23:55;;;;;;;6.20;2.83;;;;;;;15.90;100.00;99944.78;6235624;23;20012;-91
2023/05/10 09:26:24;;;;;;;4.07;2.40;;;;;;;15.90;100.00;99942.94;6235069;23;20044;-90
2023/05/10 09:29:06;;;;;;;4.95;2.40;;;;;;;16.01;100.00;99937.66;6232326;23;20022;-89
2023/05/10 09:31:54;;;;;;;4.70;2.25;;;;;;;15.94;100.00;99919.53;6230906;23;20091;-90
2023/05/10 09:42:40;;;;;;;4.47;2.63;;;;;;;15.61;100.00;99949.63;6226087;23;20047;-88
2023/05/10 09:45:22;;;;;;;6.90;2.70;;;;;;;15.70;100.00;99954.31;6224188;23;20073;-89
2023/05/10 09:48:17;;;;;;;3.92;1.95;;;;;;;15.87;100.00;99937.00;6206640;23;20432;-87
2023/05/10 09:54:25;;;;;;;3.38;1.50;;;;;;;16.71;100.00;99948.22;6224888;23;20332;-88
2023/05/10 10:04:09;;;;;;;2.10;1.30;;;;;;;16.11;100.00;99943.97;6241633;23;20035;-88
2023/05/10 10:07:05;;;;;;;4.70;1.67;;;;;;;16.13;100.00;99951.88;6232171;23;20018;-89
2023/05/10 10:09:40;;;;;;;4.15;1.58;;;;;;;15.94;100.00;99947.09;6224808;23;20024;-90
2023/05/10 10:12:08;;;;;;;4.07;2.85;;;;;;;15.94;100.00;99959.59;6222060;23;20017;-89
2023/05/10 10:14:35;;;;;;;2.80;2.08;;;;;;;15.94;100.00;99972.94;6224863;23;20063;-88
2023/05/10 10:17:10;;;;;;;2.28;1.52;;;;;;;15.76;100.00;99983.19;6225331;23;20053;-89
2023/05/10 10:19:39;;;;;;;6.05;2.25;;;;;;;15.81;100.00;99977.50;6230674;23;20024;-89
2023/05/10 10:22:14;;;;;;;4.78;2.60;;;;;;;15.86;100.00;99970.03;6228779;23;20036;-90
2023/05/10 10:29:05;;;;;;;5.47;4.03;;;;;;;16.42;100.00;99974.53;6233540;23;20074;-87
2023/05/10 10:31:46;;;;;;;6.78;3.55;;;;;;;16.69;100.00;99974.22;6225029;23;20012;-88
2023/05/10 10:34:32;;;;;;;3.15;2.05;;;;;;;16.70;100.00;99975.06;6144288;23;20105;-89
2023/05/10 10:37:05;;;;;;;5.72;2.80;;;;;;;16.72;100.00;99976.66;6140975;23;20104;-88
2023/05/10 10:39:50;;;;;;;5.97;2.80;;;;;;;16.69;100.00;99973.34;6096078;23;20383;-88
2023/05/10 10:42:53;;;;;;;1.38;1.20;;;;;;;16.38;100.00;99980.22;6110147;23;20061;-88
2023/05/10 10:45:24;;;;;;;4.95;2.80;;;;;;;16.23;100.00;99979.59;6119071;23;20024;-88
2023/05/10 10:48:21;;;;;;;2.03;1.30;;;;;;;15.92;100.00;99985.56;6125832;23;20146;-88
2023/05/10 10:50:57;;;;;;;1.63;1.13;;;;;;;15.44;100.00;99965.06;6144589;23;20033;-88
2023/05/10 10:53:29;;;;;;;1.38;1.00;;;;;;;15.21;100.00;99987.25;6156647;23;20023;-88
2023/05/10 10:56:21;;;;;;;2.97;1.08;;;;;;;15.05;100.00;99989.31;6168276;23;20021;-88
2023/05/10 10:59:03;;;;;;;4.35;1.40;;;;;;;14.97;100.00;99987.19;6146124;23;20023;-88
2023/05/10 11:01:53;;;;;;;1.40;0.70;;;;;;;15.07;100.00;99992.72;6203630;23;20118;-88
2023/05/10 11:04:24;;;;;;;1.60;0.80;;;;;;;14.90;100.00;99969.94;6174164;23;20028;-89
2023/05/10 11:07:17;;;;;;;1.92;0.90;;;;;;;15.00;100.00;99967.44;6168949;23;20048;-88
2023/05/10 11:10:04;;;;;;;3.00;1.02;;;;;;;15.41;100.00;99981.31;6169971;23;20064;-88
2023/05/10 11:13:16;;;;;;;1.40;1.08;;;;;;;15.88;100.00;99984.09;6156761;23;20088;-87
2023/05/10 11:16:19;;;;;;;1.58;0.80;;;;;;;16.25;100.00;99983.00;6194437;23;20028;-87
2023/05/10 11:19:04;;;;;;;3.38;1.00;;;;;;;16.54;100.00;99987.91;6196152;23;20072;-88
2023/05/10 11:21:51;;;;;;;1.38;0.90;;;;;;;16.72;100.00;99992.69;6173726;23;20091;-89
2023/05/10 11:24:58;;;;;;;1.40;0.90;;;;;;;16.70;100.00;99973.25;4940299;27;6306305;-88
2023/05/10 11:27:32;;;;;;;1.42;1.00;;;;;;;17.02;100.00;99981.38;5140090;28;20051;-89
2023/05/10 11:30:09;;;;;;;2.35;0.95;;;;;;;17.18;100.00;99986.34;5136227;28;20116;-89
2023/05/10 11:32:42;;;;;;;4.03;1.00;;;;;;;16.96;100.00;99965.84;5138224;27;20058;-88
2023/05/10 11:35:19;;;;;;;1.80;1.23;;;;;;;16.95;100.00;99977.50;5147627;27;20043;-89
2023/05/10 11:37:59;;;;;;;2.75;0.90;;;;;;;16.85;100.00;99981.88;5134508;28;20047;-88
2023/05/10 11:40:42;;;;;;;1.30;0.80;;;;;;;16.56;100.00;99986.81;5143167;28;20077;-89
2023/05/10 11:43:30;;;;;;;1.13;0.80;;;;;;;16.49;100.00;99989.13;5141360;27;20044;-88
2023/05/10 11:46:13;;;;;;;2.05;1.13;;;;;;;16.49;100.00;99993.63;5150242;28;20039;-89
2023/05/10 11:48:40;;;;;;;5.60;1.55;;;;;;;16.36;100.00;99944.78;5119230;28;20111;-88
2023/05/10 11:51:15;;;;;;;1.08;0.85;;;;;;;16.74;100.00;99971.19;5152291;28;20048;-87
2023/05/10 11:53:46;;;;;;;1.27;1.10;;;;;;;16.88;100.00;99989.66;5153280;27;20065;-88
2023/05/10 11:56:28;;;;;;;3.65;1.15;;;;;;;16.75;100.00;99963.03;5119579;28;20078;-89
2023/05/10 11:58:59;;;;;;;3.10;1.42;;;;;;;17.07;100.00;99997.06;5134371;28;20043;-88
2023/05/10 12:01:28;;;;;;;2.10;1.20;;;;;;;17.10;100.00;99996.81;5150875;28;20456;-88
2023/05/10 12:04:01;;;;;;;3.58;1.15;;;;;;;17.21;100.00;100003.97;5094684;28;20107;-90
2023/05/10 12:06:46;;;;;;;4.57;1.33;;;;;;;17.23;100.00;100000.22;5125166;28;20047;-89
2023/05/10 12:09:16;;;;;;;2.67;1.30;;;;;;;17.08;100.00;99998.78;5134681;28;20047;-88
2023/05/10 12:15:50;;;;;;;2.85;1.50;;;;;;;17.18;100.00;99989.88;5118868;28;20089;-90
2023/05/10 12:18:28;;;;;;;3.83;1.98;;;;;;;17.51;100.00;100004.16;5143039;28;20077;-88
2023/05/10 12:21:17;;;;;;;3.75;1.52;;;;;;;17.79;100.00;100008.13;5129629;28;20070;-89
2023/05/10 12:23:54;;;;;;;2.25;1.45;;;;;;;17.92;100.00;99979.38;5144966;27;20059;-89
2023/05/10 12:26:26;;;;;;;2.95;1.30;;;;;;;18.30;100.00;99992.19;5126756;28;20047;-91
2023/05/10 12:29:17;;;;;;;3.00;1.60;;;;;;;18.79;100.00;99986.16;5143509;27;20100;-90
2023/05/10 12:31:59;;;;;;;2.33;1.50;;;;;;;18.97;100.00;99982.81;5125656;28;20050;-91
2023/05/10 12:34:52;;;;;;;2.88;2.00;;;;;;;18.96;100.00;99987.34;5116075;27;20399;-90
2023/05/10 12:37:28;;;;;;;2.75;1.23;;;;;;;19.27;95.76;99983.63;5145389;27;20061;-90
2023/05/10 12:40:11;;;;;;;1.75;0.70;;;;;;;19.27;81.88;99959.47;5144685;27;20443;-90
2023/05/10 12:42:52;;;;;;;3.10;1.17;;;;;;;19.69;82.99;99972.69;5148378;27;20039;-89
2023/05/10 12:45:38;;;;;;;1.30;0.80;;;;;;;20.08;74.39;99999.59;5122709;28;20035;-91
2023/05/10 12:48:28;;;;;;;1.42;0.80;;;;;;;19.86;74.48;99939.75;5108732;28;20096;-90
2023/05/10 12:51:16;;;;;;;1.00;0.85;;;;;;;20.18;72.00;100003.13;5107282;28;20052;-89
2023/05/10 12:54:19;;;;;;;1.63;0.70;;;;;;;19.99;73.15;100003.97;5119819;28;20039;-91
2023/05/10 12:57:14;;;;;;;2.45;0.60;;;;;;;19.45;73.64;100007.13;5118821;28;20038;-92
2023/05/10 13:00:11;;;;;;;0.70;0.70;;;;;;;19.10;75.38;99986.13;5105692;28;20038;-91
2023/05/10 13:03:15;;;;;;;1.48;0.63;;;;;;;18.96;77.54;99992.72;5108557;28;20044;-91
2023/05/10 13:06:08;;;;;;;1.13;0.60;;;;;;;19.00;78.43;99995.97;5106176;28;20048;-90
2023/05/10 13:08:51;;;;;;;3.80;0.90;;;;;;;19.26;76.45;99999.88;5111782;28;20073;-91